createdAt,value
2022-08-14T00:01:10.214Z,19.41
2022-08-14T00:03:40.456Z,19.34
2022-08-14T00:06:14.084Z,19.29
2022-08-14T00:08:55.514Z,19.26
2022-08-14T00:11:25.779Z,19.26
2022-08-14T00:13:58.233Z,19.20
2022-08-14T00:16:41.611Z,19.19
2022-08-14T00:19:19.277Z,19.17
2022-08-14T00:21:47.756Z,19.16
2022-08-14T00:24:22.982Z,19.11
2022-08-14T00:26:55.636Z,19.13
2022-08-14T00:29:22.001Z,19.10
2022-08-14T00:31:56.277Z,19.08
2022-08-14T00:34:36.121Z,19.05
2022-08-14T00:37:05.583Z,19.03
2022-08-14T00:39:32.215Z,19.02
2022-08-14T00:41:58.860Z,19.01
2022-08-14T00:44:27.512Z,19.00
2022-08-14T00:47:00.239Z,19.02
2022-08-14T00:49:28.638Z,18.97
2022-08-14T00:51:56.764Z,18.97
2022-08-14T00:54:24.879Z,18.97
2022-08-14T00:56:55.722Z,18.95
2022-08-14T00:59:24.720Z,18.93
2022-08-14T01:01:53.897Z,18.90
2022-08-14T01:04:51.618Z,18.88
2022-08-14T01:07:09.133Z,18.84
2022-08-14T01:09:39.100Z,18.83
2022-08-14T01:12:07.777Z,18.80
2022-08-14T01:14:34.701Z,18.71
2022-08-14T01:17:02.213Z,18.66
2022-08-14T01:19:48.026Z,18.64
2022-08-14T01:22:18.792Z,18.64
2022-08-14T01:24:46.923Z,18.63
2022-08-14T01:27:18.431Z,18.60
2022-08-14T01:30:03.346Z,18.57
2022-08-14T01:32:37.730Z,18.54
2022-08-14T01:35:17.699Z,18.51
2022-08-14T01:37:57.905Z,18.48
2022-08-14T01:40:36.817Z,18.46
2022-08-14T01:43:14.449Z,18.44
2022-08-14T01:45:41.964Z,18.43
2022-08-14T01:48:13.930Z,18.42
2022-08-14T01:50:41.987Z,18.42
2022-08-14T01:53:09.700Z,18.38
2022-08-14T01:55:38.524Z,18.33
2022-08-14T01:58:19.442Z,18.29
2022-08-14T02:00:55.055Z,18.27
2022-08-14T02:03:30.903Z,18.23
2022-08-14T02:06:32.098Z,18.20
2022-08-14T02:08:52.450Z,18.17
2022-08-14T02:11:23.086Z,18.14
2022-08-14T02:14:07.339Z,18.12
2022-08-14T02:16:43.228Z,18.03
2022-08-14T02:19:14.236Z,17.98
2022-08-14T02:21:48.849Z,17.99
2022-08-14T02:24:39.618Z,18.00
2022-08-14T02:28:25.514Z,17.97
2022-08-14T02:29:56.171Z,17.97
2022-08-14T02:32:30.501Z,17.96
2022-08-14T02:35:11.401Z,17.92
2022-08-14T02:37:48.115Z,17.90
2022-08-14T02:40:16.416Z,17.84
2022-08-14T02:42:54.923Z,17.80
2022-08-14T02:45:33.583Z,17.77
2022-08-14T02:48:10.602Z,17.73
2022-08-14T02:50:54.028Z,17.73
2022-08-14T02:53:20.416Z,17.73
2022-08-14T02:55:46.954Z,17.70
2022-08-14T02:58:21.416Z,17.67
2022-08-14T03:00:57.543Z,17.67
2022-08-14T03:03:24.728Z,17.68
2022-08-14T03:05:54.307Z,17.67
2022-08-14T03:08:22.058Z,17.65
2022-08-14T03:10:50.056Z,17.65
2022-08-14T03:13:19.801Z,17.67
2022-08-14T03:15:55.616Z,17.64
2022-08-14T03:18:30.615Z,17.61
2022-08-14T03:21:05.759Z,17.62
2022-08-14T03:23:38.293Z,17.58
2022-08-14T03:26:08.330Z,17.57
2022-08-14T03:28:34.770Z,17.54
2022-08-14T03:31:04.228Z,17.54
2022-08-14T03:33:40.373Z,17.50
2022-08-14T03:37:37.371Z,17.51
2022-08-14T03:39:13.383Z,17.48
2022-08-14T03:41:46.283Z,17.47
2022-08-14T03:45:26.937Z,17.46
2022-08-14T03:46:59.427Z,17.51
2022-08-14T03:49:30.140Z,17.54
2022-08-14T03:52:00.831Z,17.56
2022-08-14T03:54:28.705Z,17.57
2022-08-14T03:56:55.844Z,17.56
2022-08-14T03:59:22.305Z,17.55
2022-08-14T04:02:01.983Z,17.57
2022-08-14T04:04:30.728Z,17.58
2022-08-14T04:06:59.286Z,17.61
2022-08-14T04:09:26.977Z,17.64
2022-08-14T04:11:53.896Z,17.62
2022-08-14T04:14:20.404Z,17.62
2022-08-14T04:16:47.889Z,17.60
2022-08-14T04:19:18.677Z,17.62
2022-08-14T04:22:02.992Z,17.61
2022-08-14T04:24:37.812Z,17.61
2022-08-14T04:27:05.820Z,17.61
2022-08-14T04:29:32.825Z,17.58
2022-08-14T04:32:57.834Z,17.56
2022-08-14T04:34:51.953Z,17.58
2022-08-14T04:37:45.269Z,17.59
2022-08-14T04:40:31.300Z,17.61
2022-08-14T04:43:17.433Z,17.62
2022-08-14T04:45:45.180Z,17.66
2022-08-14T04:48:39.214Z,17.66
2022-08-14T04:51:01.277Z,17.68
2022-08-14T04:53:35.263Z,17.72
2022-08-14T04:56:03.244Z,17.78
2022-08-14T04:58:34.019Z,17.83
2022-08-14T05:01:02.446Z,17.87
2022-08-14T05:03:31.797Z,17.90
2022-08-14T05:06:01.300Z,17.92
2022-08-14T05:08:32.304Z,17.96
2022-08-14T05:11:15.873Z,17.97
2022-08-14T05:16:31.661Z,18.08
2022-08-14T05:19:17.889Z,18.13
2022-08-14T05:21:59.585Z,18.22
2022-08-14T05:24:28.664Z,18.27
2022-08-14T05:26:56.768Z,18.30
2022-08-14T05:29:23.456Z,18.35
2022-08-14T05:31:50.518Z,18.42
2022-08-14T05:34:23.802Z,18.50
2022-08-14T05:36:58.849Z,18.96
2022-08-14T05:39:29.801Z,20.75
2022-08-14T05:41:56.677Z,22.39
2022-08-14T05:44:29.191Z,23.46
2022-08-14T05:46:56.560Z,24.21
2022-08-14T05:49:23.166Z,24.37
2022-08-14T05:51:52.661Z,24.89
2022-08-14T05:54:26.987Z,25.42
2022-08-14T05:56:54.250Z,25.96
2022-08-14T05:59:21.741Z,25.98
2022-08-14T06:02:03.604Z,26.40
2022-08-14T06:04:32.466Z,26.91
2022-08-14T06:06:59.088Z,26.29
2022-08-14T06:09:25.547Z,25.81
2022-08-14T06:11:52.222Z,25.30
2022-08-14T06:14:24.060Z,25.47
2022-08-14T06:16:52.003Z,25.28
2022-08-14T06:19:20.272Z,25.60
2022-08-14T06:21:53.235Z,26.41
2022-08-14T06:24:24.656Z,26.94
2022-08-14T06:26:56.938Z,26.17
2022-08-14T06:29:33.404Z,24.92
2022-08-14T06:32:36.923Z,24.05
2022-08-14T06:35:04.465Z,23.53
2022-08-14T06:37:41.391Z,23.28
2022-08-14T06:40:25.519Z,23.11
2022-08-14T06:42:54.820Z,23.08
2022-08-14T06:45:21.265Z,23.08
2022-08-14T06:47:53.970Z,22.98
2022-08-14T06:50:28.209Z,22.83
2022-08-14T06:52:55.660Z,22.90
2022-08-14T06:55:25.927Z,22.94
2022-08-14T06:57:54.965Z,23.05
2022-08-14T07:00:27.097Z,23.04
2022-08-14T07:03:12.618Z,23.18
2022-08-14T07:05:55.417Z,23.35
2022-08-14T07:08:28.774Z,23.42
2022-08-14T07:11:03.861Z,23.56
2022-08-14T07:13:31.039Z,23.44
2022-08-14T07:16:00.354Z,23.37
2022-08-14T07:18:30.495Z,23.50
2022-08-14T07:20:58.567Z,23.67
2022-08-14T07:23:25.921Z,23.81
2022-08-14T07:25:54.660Z,23.98
2022-08-14T07:28:34.738Z,24.03
2022-08-14T07:31:05.845Z,24.22
2022-08-14T07:33:42.039Z,24.37
2022-08-14T07:36:27.036Z,24.52
2022-08-14T07:38:58.220Z,24.72
2022-08-14T07:41:24.599Z,24.85
2022-08-14T07:43:57.896Z,24.94
2022-08-14T07:46:28.478Z,25.14
2022-08-14T07:48:56.832Z,25.24
2022-08-14T07:51:23.993Z,25.35
2022-08-14T07:53:56.820Z,25.43
2022-08-14T07:56:44.173Z,25.55
2022-08-14T07:59:11.077Z,25.84
2022-08-14T08:01:39.335Z,26.07
2022-08-14T08:04:16.780Z,26.11
2022-08-14T08:06:51.023Z,26.36
2022-08-14T08:09:20.727Z,26.50
2022-08-14T08:11:54.480Z,26.74
2022-08-14T08:14:24.860Z,26.90
2022-08-14T08:16:54.122Z,27.07
2022-08-14T08:19:20.725Z,27.15
2022-08-14T08:21:47.824Z,27.28
2022-08-14T08:24:20.004Z,27.27
2022-08-14T08:26:50.490Z,27.24
2022-08-14T08:29:28.895Z,27.33
2022-08-14T08:32:01.851Z,27.49
2022-08-14T08:34:31.692Z,27.66
2022-08-14T08:36:58.476Z,27.95
2022-08-14T08:39:24.891Z,28.06
2022-08-14T08:41:57.244Z,28.18
2022-08-14T08:44:32.846Z,28.40
2022-08-14T08:47:05.311Z,28.65
2022-08-14T08:49:52.725Z,28.73
2022-08-14T08:52:31.795Z,28.98
2022-08-14T08:54:59.535Z,29.06
2022-08-14T08:57:27.267Z,29.27
2022-08-14T08:59:54.694Z,29.49
2022-08-14T09:02:22.594Z,29.71
2022-08-14T09:05:02.039Z,29.82
2022-08-14T09:07:28.442Z,29.88
2022-08-14T09:09:59.379Z,30.01
2022-08-14T09:12:31.771Z,30.29
2022-08-14T09:15:00.868Z,30.40
2022-08-14T09:17:27.885Z,30.47
2022-08-14T09:19:54.256Z,30.69
2022-08-14T09:22:33.740Z,30.84
2022-08-14T09:25:08.466Z,30.85
2022-08-14T09:27:37.975Z,30.87
2022-08-14T09:30:12.682Z,30.94
2022-08-14T09:33:09.367Z,30.81
2022-08-14T09:36:20.006Z,31.08
2022-08-14T09:39:23.240Z,31.28
2022-08-14T09:42:21.275Z,31.38
2022-08-14T09:45:19.255Z,31.19
2022-08-14T09:47:51.836Z,31.23
2022-08-14T09:50:26.094Z,31.62
2022-08-14T09:53:04.041Z,31.80
2022-08-14T09:55:41.725Z,32.08
2022-08-14T09:58:20.080Z,32.10
2022-08-14T10:01:01.541Z,32.12
2022-08-14T10:03:34.414Z,32.40
2022-08-14T10:06:08.751Z,32.86
2022-08-14T10:08:50.743Z,32.65
2022-08-14T10:11:19.355Z,32.75
2022-08-14T10:13:55.801Z,32.98
2022-08-14T10:16:27.170Z,33.23
2022-08-14T10:19:07.652Z,33.19
2022-08-14T10:21:38.811Z,33.25
2022-08-14T10:24:36.341Z,33.41
2022-08-14T10:27:03.605Z,33.45
2022-08-14T10:29:38.624Z,33.57
2022-08-14T10:32:18.319Z,33.92
2022-08-14T10:35:04.768Z,33.86
2022-08-14T10:37:38.867Z,33.99
2022-08-14T10:40:36.759Z,33.90
2022-08-14T10:42:54.439Z,33.84
2022-08-14T10:45:30.296Z,34.07
2022-08-14T10:48:07.857Z,34.04
2022-08-14T10:50:41.316Z,34.25
2022-08-14T10:53:08.960Z,34.23
2022-08-14T10:55:45.149Z,34.11
2022-08-14T10:58:12.719Z,34.20
2022-08-14T11:00:55.509Z,34.22
2022-08-14T11:03:26.648Z,34.61
2022-08-14T11:06:19.790Z,34.68
2022-08-14T11:08:48.538Z,34.65
2022-08-14T11:11:18.414Z,35.11
2022-08-14T11:13:46.380Z,35.34
2022-08-14T11:16:15.926Z,35.26
2022-08-14T11:18:50.906Z,35.71
2022-08-14T11:21:22.918Z,35.72
2022-08-14T11:23:53.429Z,35.98
2022-08-14T11:26:22.608Z,36.11
2022-08-14T11:28:50.988Z,36.47
2022-08-14T11:31:25.733Z,36.10
2022-08-14T11:33:55.606Z,35.75
2022-08-14T11:36:23.973Z,36.20
2022-08-14T11:39:01.847Z,36.01
2022-08-14T11:41:28.275Z,36.02
2022-08-14T11:43:56.269Z,36.53
2022-08-14T11:46:29.695Z,36.41
2022-08-14T11:49:02.969Z,36.35
2022-08-14T11:51:36.354Z,36.30
2022-08-14T11:54:19.475Z,36.92
2022-08-14T11:56:49.757Z,36.86
2022-08-14T11:59:19.609Z,37.02
2022-08-14T12:01:52.833Z,37.56
2022-08-14T12:04:21.540Z,37.66
2022-08-14T12:07:00.711Z,37.55
2022-08-14T12:09:33.213Z,36.96
2022-08-14T12:12:01.393Z,36.44
2022-08-14T12:14:30.298Z,36.79
2022-08-14T12:17:09.503Z,37.38
2022-08-14T12:19:46.161Z,37.82
2022-08-14T12:22:29.541Z,37.58
2022-08-14T12:24:56.834Z,37.84
2022-08-14T12:27:25.207Z,37.79
2022-08-14T12:29:53.873Z,37.57
2022-08-14T12:32:20.254Z,37.04
2022-08-14T12:34:53.307Z,37.18
2022-08-14T12:37:29.963Z,38.00
2022-08-14T12:39:57.189Z,38.41
2022-08-14T12:42:36.476Z,38.60
2022-08-14T12:45:08.337Z,38.84
2022-08-14T12:47:34.887Z,38.81
2022-08-14T12:50:02.346Z,39.07
2022-08-14T12:53:01.910Z,39.36
2022-08-14T12:56:17.982Z,39.45
2022-08-14T12:58:34.957Z,39.01
2022-08-14T13:01:20.569Z,39.00
2022-08-14T13:03:48.237Z,39.36
2022-08-14T13:06:19.155Z,39.35
2022-08-14T13:08:53.057Z,38.81
2022-08-14T13:11:24.098Z,38.02
2022-08-14T13:13:58.408Z,37.31
2022-08-14T13:16:38.183Z,36.80
2022-08-14T13:19:10.981Z,36.55
2022-08-14T13:22:05.703Z,36.46
2022-08-14T13:24:27.954Z,36.24
2022-08-14T13:26:56.916Z,36.19
2022-08-14T13:29:29.673Z,36.10
2022-08-14T13:31:58.243Z,36.01
2022-08-14T13:34:27.011Z,36.02
2022-08-14T13:37:03.636Z,36.03
2022-08-14T13:39:36.474Z,35.79
2022-08-14T13:42:13.355Z,35.87
2022-08-14T13:44:42.973Z,35.77
2022-08-14T13:47:10.578Z,35.74
2022-08-14T13:49:57.155Z,36.00
2022-08-14T13:52:52.941Z,35.44
2022-08-14T13:55:13.532Z,35.26
2022-08-14T13:57:49.469Z,34.93
2022-08-14T14:00:21.863Z,34.79
2022-08-14T14:03:00.166Z,35.05
2022-08-14T14:05:52.772Z,36.02
2022-08-14T14:08:18.745Z,36.85
2022-08-14T14:10:45.735Z,37.07
2022-08-14T14:13:20.013Z,37.57
2022-08-14T14:15:58.300Z,37.70
2022-08-14T14:18:33.863Z,37.21
2022-08-14T14:21:02.744Z,36.50
2022-08-14T14:23:30.229Z,36.60
2022-08-14T14:25:57.599Z,37.13
2022-08-14T14:28:31.344Z,37.22
2022-08-14T14:31:01.228Z,37.29
2022-08-14T14:33:50.740Z,37.40
2022-08-14T14:36:25.901Z,37.68
2022-08-14T14:38:58.059Z,37.41
2022-08-14T14:41:38.265Z,36.96
2022-08-14T14:44:13.377Z,36.45
2022-08-14T14:46:43.313Z,36.25
2022-08-14T14:49:14.105Z,36.25
2022-08-14T14:51:45.061Z,35.90
2022-08-14T14:54:17.797Z,36.14
2022-08-14T14:56:50.878Z,36.24
2022-08-14T14:59:20.720Z,36.25
2022-08-14T15:01:49.828Z,36.48
2022-08-14T15:04:20.591Z,36.81
2022-08-14T15:06:48.279Z,36.78
2022-08-14T15:09:17.611Z,36.86
2022-08-14T15:11:45.869Z,36.68
2022-08-14T15:14:56.462Z,36.90
2022-08-14T15:17:01.793Z,37.03
2022-08-14T15:19:28.247Z,37.41
2022-08-14T15:21:55.289Z,37.49
2022-08-14T15:24:26.589Z,37.56
2022-08-14T15:26:53.847Z,37.61
2022-08-14T15:29:20.383Z,37.41
2022-08-14T15:31:46.753Z,37.16
2022-08-14T15:34:44.088Z,37.05
2022-08-14T15:37:05.123Z,36.89
2022-08-14T15:39:35.359Z,37.10
2022-08-14T15:42:15.006Z,37.06
2022-08-14T15:44:58.525Z,36.84
2022-08-14T15:47:30.790Z,36.33
2022-08-14T15:50:00.549Z,36.18
2022-08-14T15:52:33.166Z,36.06
2022-08-14T15:55:09.702Z,36.21
2022-08-14T15:57:39.409Z,36.49
2022-08-14T16:00:49.688Z,36.49
2022-08-14T16:03:18.444Z,36.18
2022-08-14T16:05:55.694Z,35.98
2022-08-14T16:08:27.308Z,35.85
2022-08-14T16:10:58.535Z,35.74
2022-08-14T16:13:41.742Z,35.44
2022-08-14T16:16:34.689Z,35.26
2022-08-14T16:18:59.553Z,35.33
2022-08-14T16:21:31.517Z,35.33
2022-08-14T16:24:00.442Z,35.22
2022-08-14T16:26:29.121Z,35.29
2022-08-14T16:29:02.329Z,35.14
2022-08-14T16:31:36.030Z,35.40
2022-08-14T16:34:46.274Z,35.43
2022-08-14T16:36:53.723Z,34.98
2022-08-14T16:39:22.379Z,34.90
2022-08-14T16:41:52.416Z,34.99
2022-08-14T16:44:31.693Z,35.06
2022-08-14T16:47:04.208Z,34.92
2022-08-14T16:50:02.749Z,34.81
2022-08-14T16:52:25.839Z,34.63
2022-08-14T16:55:06.823Z,34.55
2022-08-14T16:57:34.323Z,34.41
2022-08-14T17:00:07.258Z,34.16
2022-08-14T17:02:46.335Z,34.11
2022-08-14T17:05:24.658Z,33.90
2022-08-14T17:08:33.108Z,33.69
2022-08-14T17:11:10.618Z,33.69
2022-08-14T17:13:59.066Z,33.59
2022-08-14T17:16:33.028Z,33.52
2022-08-14T17:19:03.903Z,33.40
2022-08-14T17:21:38.141Z,33.27
2022-08-14T17:24:57.128Z,33.11
2022-08-14T17:26:58.451Z,33.02
2022-08-14T17:29:31.069Z,32.93
2022-08-14T17:32:01.839Z,32.85
2022-08-14T17:34:44.378Z,32.67
2022-08-14T17:37:37.504Z,32.62
2022-08-14T17:40:15.910Z,32.46
2022-08-14T17:42:51.020Z,32.29
2022-08-14T17:45:38.954Z,32.08
2022-08-14T17:49:10.545Z,31.88
2022-08-14T17:51:14.115Z,31.76
2022-08-14T17:53:53.294Z,31.55
2022-08-14T17:56:20.609Z,31.36
2022-08-14T17:58:49.222Z,31.31
2022-08-14T18:01:17.047Z,31.24
2022-08-14T18:03:53.608Z,31.17
2022-08-14T18:06:38.697Z,31.10
2022-08-14T18:09:25.090Z,30.90
2022-08-14T18:11:58.165Z,30.80
2022-08-14T18:14:32.375Z,30.71
2022-08-14T18:17:13.512Z,30.58
2022-08-14T18:19:44.543Z,30.49
2022-08-14T18:22:31.340Z,30.38
2022-08-14T18:24:58.462Z,30.25
2022-08-14T18:27:38.861Z,30.14
2022-08-14T18:30:33.130Z,30.04
2022-08-14T18:32:59.059Z,29.89
2022-08-14T18:35:59.122Z,29.74
2022-08-14T18:38:45.724Z,29.60
2022-08-14T18:41:36.836Z,29.44
2022-08-14T18:44:05.108Z,29.23
2022-08-14T18:47:08.442Z,29.02
2022-08-14T18:49:57.647Z,28.82
2022-08-14T18:52:33.374Z,28.63
2022-08-14T18:55:20.609Z,28.39
2022-08-14T18:58:24.497Z,28.23
2022-08-14T19:00:54.954Z,28.07
2022-08-14T19:03:33.666Z,28.02
2022-08-14T19:06:03.129Z,27.99
2022-08-14T19:08:41.454Z,27.94
2022-08-14T19:11:39.514Z,27.89
2022-08-14T19:14:07.492Z,27.80
2022-08-14T19:16:36.852Z,27.69
2022-08-14T19:19:06.768Z,27.52
2022-08-14T19:21:35.673Z,27.38
2022-08-14T19:24:27.156Z,27.27
2022-08-14T19:27:16.660Z,27.09
2022-08-14T19:29:47.785Z,27.04
2022-08-14T19:32:38.875Z,27.01
2022-08-14T19:35:16.679Z,26.98
2022-08-14T19:37:54.869Z,26.93
2022-08-14T19:40:34.703Z,26.85
2022-08-14T19:43:06.365Z,26.80
2022-08-14T19:45:33.628Z,26.75
2022-08-14T19:48:00.675Z,26.66
2022-08-14T19:50:40.619Z,26.55
2022-08-14T19:53:17.087Z,26.43
2022-08-14T19:55:56.656Z,26.27
2022-08-14T19:58:30.127Z,26.12
2022-08-14T20:01:01.298Z,25.96
2022-08-14T20:03:59.838Z,25.83
2022-08-14T20:06:37.006Z,25.79
2022-08-14T20:11:05.559Z,25.75
2022-08-14T20:12:04.950Z,25.70
2022-08-14T20:14:36.958Z,25.65
2022-08-14T20:17:06.726Z,25.61
2022-08-14T20:19:37.591Z,25.54
2022-08-14T20:22:35.431Z,25.42
2022-08-14T20:24:55.035Z,25.30
2022-08-14T20:27:33.436Z,25.14
2022-08-14T20:30:29.745Z,25.02
2022-08-14T20:33:04.454Z,24.87
2022-08-14T20:35:41.884Z,24.75
2022-08-14T20:38:33.428Z,24.67
2022-08-14T20:41:08.613Z,24.54
2022-08-14T20:43:59.829Z,24.47
2022-08-14T20:46:31.539Z,24.47
2022-08-14T20:49:01.153Z,24.39
2022-08-14T20:51:38.789Z,24.38
2022-08-14T20:54:11.618Z,24.37
2022-08-14T20:56:40.497Z,24.28
2022-08-14T20:59:17.622Z,24.28
2022-08-14T21:02:28.396Z,24.27
2022-08-14T21:05:00.481Z,24.27
2022-08-14T21:07:35.350Z,24.23
2022-08-14T21:10:33.548Z,24.17
2022-08-14T21:13:26.552Z,24.14
2022-08-14T21:15:57.568Z,24.06
2022-08-14T21:18:28.694Z,24.00
2022-08-14T21:20:56.172Z,23.95
2022-08-14T21:23:23.114Z,23.85
2022-08-14T21:25:49.579Z,23.82
2022-08-14T21:28:29.841Z,23.81
2022-08-14T21:30:57.552Z,23.85
2022-08-14T21:33:24.448Z,23.86
2022-08-14T21:35:54.826Z,23.83
2022-08-14T21:38:22.123Z,23.82
2022-08-14T21:41:41.244Z,23.78
2022-08-14T21:44:03.662Z,23.75
2022-08-14T21:46:30.397Z,23.70
2022-08-14T21:48:58.557Z,23.65
2022-08-14T21:51:56.056Z,23.57
2022-08-14T21:54:30.320Z,23.50
2022-08-14T21:57:00.255Z,23.41
2022-08-14T21:59:32.251Z,23.34
2022-08-14T22:02:03.429Z,23.30
2022-08-14T22:04:40.605Z,23.27
2022-08-14T22:07:10.567Z,23.29
2022-08-14T22:09:38.909Z,23.21
2022-08-14T22:12:11.041Z,23.16
2022-08-14T22:14:57.490Z,23.14
2022-08-14T22:17:24.094Z,23.16
2022-08-14T22:19:54.741Z,23.17
2022-08-14T22:22:24.056Z,23.18
2022-08-14T22:25:00.034Z,23.16
2022-08-14T22:27:28.441Z,23.14
2022-08-14T22:29:58.625Z,23.12
2022-08-14T22:32:34.969Z,23.08
2022-08-14T22:35:03.128Z,23.03
2022-08-14T22:37:29.470Z,22.98
2022-08-14T22:40:48.396Z,22.94
2022-08-14T22:42:42.373Z,22.89
2022-08-14T22:45:36.717Z,22.82
2022-08-14T22:48:09.699Z,22.72
2022-08-14T22:50:48.721Z,22.63
2022-08-14T22:53:20.289Z,22.54
2022-08-14T22:55:46.865Z,22.52
2022-08-14T22:58:17.212Z,22.47
2022-08-14T23:00:45.704Z,22.47
2022-08-14T23:03:17.363Z,22.44
2022-08-14T23:05:52.778Z,22.36
2022-08-14T23:08:57.087Z,22.36
2022-08-14T23:11:07.015Z,22.31
2022-08-14T23:13:33.492Z,22.25
2022-08-14T23:16:00.197Z,22.20
2022-08-14T23:18:29.873Z,22.17
2022-08-14T23:20:57.075Z,22.13
2022-08-14T23:23:24.261Z,22.09
2022-08-14T23:25:58.746Z,22.04
2022-08-14T23:28:34.615Z,21.97
2022-08-14T23:31:34.675Z,21.90
2022-08-14T23:34:06.952Z,21.84
2022-08-14T23:36:37.197Z,21.83
2022-08-14T23:39:10.612Z,21.86
2022-08-14T23:41:53.160Z,21.89
2022-08-14T23:44:23.549Z,21.93
2022-08-14T23:46:52.815Z,21.96
2022-08-14T23:49:25.027Z,21.97
2022-08-14T23:52:49.286Z,22.03
2022-08-14T23:54:49.255Z,22.01
2022-08-14T23:57:19.322Z,21.97
2022-08-14T23:59:54.189Z,21.97
